Wileyville, West Virginia
Current Conditions -  °F | °C
As of 12:53 AM on Thursday 27 Nov 2014 (Local Time) from KCKB Reporting Station
Haze Haze  
Wind Chill: 33°   Ceiling: 800
Heat Index: 33°   Visibility: 4mi
Dew Point: 32°   Wind: 0mph
Humidity: 96%   Direction: NA
Pressure: 30"   Gusts: NA
Location:  39.63°N, 80.67°W
Report Text: KCKB 270553Z AUTO 00000KT 4SM BR OVC008 01/00 A3000 RMK AO2 SLP163 60003 I6000 T00060000 10022 20006 58003
Loading
Personal Weather Stations






























Interactive Weather Map New forecast layout! Learn more

10-Day Weather Forecast

Advertisements
Track Severe Weather on mobile